Das Wetter fuer Meerbusch Buederich
Wetterdaten: aktuell Montag, 03.06.2024 07:26
Datum Zeit Temp.Mast Feuchte Mast Sonnenstand Luftdruck Regen Wind Richtung Richtung Sonnenschein Taupunkt Windchill Windböen
03.06.2024 07:26 11,8 °C 79 % 0 cb 1020,7 hPa 0,0 mm 0,0 km/h NW 315 ° 0 min 8,3 °C 11,8 °C 0,0 km/h
03.06.2024 07:24 11,8 °C 79 % 0 cb 1020,7 hPa 0,0 mm 0,0 km/h SW 230 ° 0 min 8,3 °C 11,8 °C 0,0 km/h
03.06.2024 07:19 11,7 °C 79 % 0 cb 1020,7 hPa 0,0 mm 0,0 km/h NW 315 ° 0 min 8,2 °C 11,7 °C 0,0 km/h
03.06.2024 07:14 11,5 °C 79 % 0 cb 1019,7 hPa 0,0 mm 0,0 km/h NW 305 ° 0 min 8,0 °C 11,5 °C 0,0 km/h
03.06.2024 07:09 11,5 °C 80 % 0 cb 1019,7 hPa 0,0 mm 0,0 km/h NW 325 ° 0 min 8,2 °C 11,5 °C 0,0 km/h
03.06.2024 07:04 11,5 °C 80 % 0 cb 1019,7 hPa 0,0 mm 0,0 km/h S 185 ° 0 min 8,2 °C 11,5 °C 0,0 km/h
03.06.2024 06:59 11,5 °C 80 % 0 cb 1019,7 hPa 0,0 mm 0,0 km/h W 280 ° 0 min 8,2 °C 11,5 °C 0,0 km/h
03.06.2024 06:54 11,4 °C 80 % 0 cb 1019,7 hPa 0,0 mm 0,0 km/h W 275 ° 0 min 8,1 °C 11,4 °C 0,0 km/h
03.06.2024 06:49 11,4 °C 80 % 0 cb 1019,7 hPa 0,0 mm 0,0 km/h S-SO 160 ° 0 min 8,1 °C 11,4 °C 0,0 km/h
03.06.2024 06:44 11,3 °C 80 % 0 cb 1019,7 hPa 0,0 mm 0,0 km/h S-SW 210 ° 0 min 8,0 °C 11,3 °C 0,0 km/h
03.06.2024 06:39 11,3 °C 80 % 0 cb 1019,7 hPa 0,0 mm 0,0 km/h N 350 ° 0 min 8,0 °C 11,3 °C 0,0 km/h
03.06.2024 06:34 11,2 °C 80 % 0 cb 1019,7 hPa 0,0 mm 0,0 km/h W-SW 250 ° 0 min 7,9 °C 11,2 °C 0,0 km/h
03.06.2024 06:29 11,1 °C 80 % 0 cb 1019,7 hPa 0,0 mm 0,0 km/h W 270 ° 0 min 7,8 °C 11,1 °C 0,0 km/h
03.06.2024 06:24 11,1 °C 80 % 0 cb 1019,7 hPa 0,0 mm 0,0 km/h SW 215 ° 0 min 7,8 °C 11,1 °C 0,0 km/h
03.06.2024 06:19 11,0 °C 81 % 0 cb 1019,7 hPa 0,0 mm 0,0 km/h NW 305 ° 0 min 7,9 °C 11,0 °C 0,0 km/h
03.06.2024 06:14 10,9 °C 81 % 0 cb 1019,7 hPa 0,0 mm 0,0 km/h S 180 ° 0 min 7,8 °C 10,9 °C 0,0 km/h
03.06.2024 06:09 10,9 °C 81 % 0 cb 1019,7 hPa 0,0 mm 0,0 km/h W 270 ° 0 min 7,8 °C 10,9 °C 0,0 km/h
03.06.2024 06:04 10,9 °C 81 % 0 cb 1019,7 hPa 0,0 mm 0,0 km/h W-NW 300 ° 0 min 7,8 °C 10,9 °C 0,0 km/h
03.06.2024 05:59 10,8 °C 81 % 0 cb 1019,7 hPa 0,0 mm 0,0 km/h SW 235 ° 0 min 7,7 °C 10,8 °C 0,0 km/h
03.06.2024 05:54 10,7 °C 81 % 0 cb 1019,8 hPa 0,0 mm 0,0 km/h W-NW 300 ° 0 min 7,6 °C 10,7 °C 0,0 km/h
03.06.2024 05:49 10,7 °C 82 % 0 cb 1019,8 hPa 0,0 mm 0,0 km/h SO 140 ° 0 min 7,8 °C 10,7 °C 0,0 km/h
03.06.2024 05:44 10,6 °C 82 % 0 cb 1019,8 hPa 0,0 mm 1,2 km/h W-NW 285 ° 0 min 7,7 °C 10,6 °C 1,2 km/h
03.06.2024 05:39 10,6 °C 82 % 0 cb 1019,8 hPa 0,0 mm 0,0 km/h NW 315 ° 0 min 7,7 °C 10,6 °C 0,0 km/h
03.06.2024 05:34 10,5 °C 82 % 0 cb 1019,8 hPa 0,0 mm 0,0 km/h N 5 ° 0 min 7,6 °C 10,5 °C 0,0 km/h
03.06.2024 05:29 10,4 °C 82 % 0 cb 1019,8 hPa 0,0 mm 0,0 km/h O-SO 110 ° 0 min 7,5 °C 10,4 °C 0,0 km/h
03.06.2024 05:24 10,4 °C 82 % 0 cb 1019,8 hPa 0,0 mm 0,0 km/h S-SW 210 ° 0 min 7,5 °C 10,4 °C 0,0 km/h
03.06.2024 05:19 10,3 °C 82 % 0 cb 1019,8 hPa 0,0 mm 0,0 km/h S 180 ° 0 min 7,4 °C 10,3 °C 0,0 km/h
03.06.2024 05:14 10,3 °C 82 % 0 cb 1019,8 hPa 0,0 mm 0,0 km/h W-NW 300 ° 0 min 7,4 °C 10,3 °C 0,0 km/h
03.06.2024 05:09 10,3 °C 82 % 0 cb 1019,8 hPa 0,0 mm 0,0 km/h W 265 ° 0 min 7,4 °C 10,3 °C 0,0 km/h
03.06.2024 05:04 10,2 °C 82 % 0 cb 1019,8 hPa 0,0 mm 0,0 km/h SW 225 ° 0 min 7,3 °C 10,2 °C 0,0 km/h
03.06.2024 04:59 10,3 °C 82 % 0 cb 1019,8 hPa 0,0 mm 0,0 km/h N-NW 340 ° 0 min 7,4 °C 10,3 °C 0,0 km/h
03.06.2024 04:54 10,2 °C 82 % 0 cb 1019,8 hPa 0,0 mm 0,0 km/h SO 130 ° 0 min 7,3 °C 10,2 °C 0,0 km/h
03.06.2024 04:49 10,2 °C 83 % 0 cb 1019,8 hPa 0,0 mm 0,0 km/h W-NW 295 ° 0 min 7,4 °C 10,2 °C 0,0 km/h
03.06.2024 04:44 10,2 °C 83 % 0 cb 1019,8 hPa 0,0 mm 1,2 km/h NW 310 ° 0 min 7,4 °C 10,2 °C 1,2 km/h
03.06.2024 04:39 10,1 °C 83 % 0 cb 1019,8 hPa 0,0 mm 0,6 km/h W-NW 295 ° 0 min 7,3 °C 10,1 °C 0,6 km/h
03.06.2024 04:34 10,1 °C 83 % 0 cb 1019,8 hPa 0,0 mm 1,2 km/h NW 320 ° 0 min 7,3 °C 10,1 °C 1,2 km/h
03.06.2024 04:29 10,0 °C 83 % 0 cb 1019,8 hPa 0,0 mm 0,0 km/h SW 230 ° 0 min 7,2 °C 10,0 °C 0,0 km/h
03.06.2024 04:24 9,9 °C 83 % 0 cb 1019,8 hPa 0,0 mm 0,0 km/h S-SW 205 ° 0 min 7,2 °C 9,9 °C 0,0 km/h
03.06.2024 04:19 9,7 °C 83 % 0 cb 1019,8 hPa 0,0 mm 0,0 km/h NW 305 ° 0 min 7,0 °C 9,7 °C 0,0 km/h
03.06.2024 04:14 9,7 °C 83 % 0 cb 1019,8 hPa 0,0 mm 0,0 km/h W-SW 240 ° 0 min 7,0 °C 9,7 °C 0,0 km/h
03.06.2024 04:09 9,6 °C 83 % 0 cb 1019,8 hPa 0,0 mm 0,0 km/h NW 305 ° 0 min 6,9 °C 9,6 °C 0,0 km/h
03.06.2024 04:04 9,5 °C 83 % 0 cb 1019,8 hPa 0,0 mm 0,0 km/h N 10 ° 0 min 6,8 °C 9,5 °C 0,0 km/h
03.06.2024 03:59 9,6 °C 83 % 0 cb 1019,8 hPa 0,0 mm 0,0 km/h S-SO 155 ° 0 min 6,9 °C 9,6 °C 0,0 km/h
03.06.2024 03:54 9,6 °C 83 % 0 cb 1019,8 hPa 0,0 mm 0,0 km/h O-NO 70 ° 0 min 6,9 °C 9,6 °C 0,0 km/h
03.06.2024 03:49 9,7 °C 83 % 0 cb 1019,8 hPa 0,0 mm 0,0 km/h NW 305 ° 0 min 7,0 °C 9,7 °C 0,0 km/h
03.06.2024 03:44 9,7 °C 82 % 0 cb 1019,8 hPa 0,0 mm 0,0 km/h S-SW 195 ° 0 min 6,8 °C 9,7 °C 0,0 km/h
03.06.2024 03:39 9,7 °C 82 % 0 cb 1019,8 hPa 0,0 mm 0,0 km/h SO 140 ° 0 min 6,8 °C 9,7 °C 0,0 km/h
03.06.2024 03:34 9,9 °C 82 % 0 cb 1019,8 hPa 0,0 mm 0,0 km/h O-NO 70 ° 0 min 7,0 °C 9,9 °C 0,0 km/h
03.06.2024 03:29 9,9 °C 82 % 0 cb 1019,8 hPa 0,0 mm 0,0 km/h NO 40 ° 0 min 7,0 °C 9,9 °C 0,0 km/h
03.06.2024 03:24 10,0 °C 82 % 0 cb 1019,8 hPa 0,0 mm 0,0 km/h O-NO 65 ° 0 min 7,1 °C 10,0 °C 0,0 km/h
03.06.2024 03:19 10,1 °C 82 % 0 cb 1019,8 hPa 0,0 mm 0,0 km/h NO 45 ° 0 min 7,2 °C 10,1 °C 0,0 km/h
03.06.2024 03:14 10,2 °C 82 % 0 cb 1019,8 hPa 0,0 mm 0,0 km/h W 265 ° 0 min 7,3 °C 10,2 °C 0,0 km/h
03.06.2024 03:04 10,3 °C 82 % 0 cb 1019,8 hPa 0,0 mm 0,0 km/h SW 225 ° 0 min 7,4 °C 10,3 °C 0,0 km/h
03.06.2024 02:59 10,3 °C 82 % 0 cb 1020,8 hPa 0,0 mm 0,0 km/h W 265 ° 0 min 7,4 °C 10,3 °C 0,0 km/h
03.06.2024 02:54 10,4 °C 82 % 0 cb 1020,8 hPa 0,0 mm 0,0 km/h N 10 ° 0 min 7,5 °C 10,4 °C 0,0 km/h
03.06.2024 02:49 10,4 °C 82 % 0 cb 1020,8 hPa 0,0 mm 0,0 km/h NW 320 ° 0 min 7,5 °C 10,4 °C 0,0 km/h
03.06.2024 02:44 10,5 °C 81 % 0 cb 1020,8 hPa 0,0 mm 0,0 km/h W 275 ° 0 min 7,4 °C 10,5 °C 0,0 km/h
03.06.2024 02:39 10,5 °C 81 % 0 cb 1020,8 hPa 0,0 mm 0,0 km/h O-NO 75 ° 0 min 7,4 °C 10,5 °C 0,0 km/h
03.06.2024 02:34 10,6 °C 81 % 0 cb 1020,8 hPa 0,0 mm 0,0 km/h N 10 ° 0 min 7,5 °C 10,6 °C 0,0 km/h
03.06.2024 02:29 10,6 °C 81 % 0 cb 1020,8 hPa 0,0 mm 0,0 km/h W-NW 290 ° 0 min 7,5 °C 10,6 °C 0,0 km/h
03.06.2024 02:24 10,7 °C 81 % 0 cb 1020,8 hPa 0,0 mm 1,2 km/h O 100 ° 0 min 7,6 °C 10,7 °C 1,2 km/h
03.06.2024 02:19 10,7 °C 81 % 0 cb 1020,8 hPa 0,0 mm 1,2 km/h S 170 ° 0 min 7,6 °C 10,7 °C 1,2 km/h
03.06.2024 02:14 10,8 °C 81 % 0 cb 1020,8 hPa 0,0 mm 0,0 km/h W-NW 300 ° 0 min 7,7 °C 10,8 °C 0,0 km/h
03.06.2024 02:09 10,8 °C 81 % 0 cb 1020,8 hPa 0,0 mm 0,0 km/h S 175 ° 0 min 7,7 °C 10,8 °C 0,0 km/h
03.06.2024 02:04 10,8 °C 81 % 0 cb 1020,8 hPa 0,0 mm 3,0 km/h W-NW 290 ° 0 min 7,7 °C 10,8 °C 3,0 km/h
03.06.2024 01:59 10,9 °C 81 % 0 cb 1020,8 hPa 0,0 mm 1,2 km/h W-SW 245 ° 0 min 7,8 °C 10,9 °C 1,2 km/h
03.06.2024 01:54 10,9 °C 81 % 0 cb 1020,8 hPa 0,0 mm 0,6 km/h O 85 ° 0 min 7,8 °C 10,9 °C 0,6 km/h
03.06.2024 01:49 11,0 °C 81 % 0 cb 1020,8 hPa 0,0 mm 1,2 km/h SW 235 ° 0 min 7,9 °C 11,0 °C 1,2 km/h
03.06.2024 01:44 11,0 °C 81 % 0 cb 1020,8 hPa 0,0 mm 1,8 km/h S 175 ° 0 min 7,9 °C 11,0 °C 1,8 km/h
03.06.2024 01:39 11,0 °C 80 % 0 cb 1020,8 hPa 0,0 mm 0,0 km/h N 0 ° 0 min 7,7 °C 11,0 °C 0,0 km/h
03.06.2024 01:34 11,1 °C 80 % 0 cb 1020,7 hPa 0,0 mm 0,0 km/h NW 305 ° 0 min 7,8 °C 11,1 °C 0,0 km/h
03.06.2024 01:29 11,1 °C 80 % 0 cb 1020,7 hPa 0,0 mm 1,2 km/h NW 310 ° 0 min 7,8 °C 11,1 °C 1,2 km/h
03.06.2024 01:24 11,1 °C 80 % 0 cb 1020,7 hPa 0,0 mm 0,0 km/h W 265 ° 0 min 7,8 °C 11,1 °C 0,0 km/h
03.06.2024 01:19 11,1 °C 80 % 0 cb 1020,7 hPa 0,0 mm 0,0 km/h W 265 ° 0 min 7,8 °C 11,1 °C 0,0 km/h
03.06.2024 01:14 11,2 °C 79 % 0 cb 1020,7 hPa 0,0 mm 0,0 km/h O 80 ° 0 min 7,7 °C 11,2 °C 0,0 km/h
03.06.2024 01:09 11,3 °C 79 % 0 cb 1020,7 hPa 0,0 mm 0,0 km/h SW 230 ° 0 min 7,8 °C 11,3 °C 0,0 km/h
03.06.2024 01:04 11,5 °C 79 % 0 cb 1020,7 hPa 0,0 mm 0,0 km/h S 190 ° 0 min 8,0 °C 11,5 °C 0,0 km/h
03.06.2024 00:59 11,6 °C 79 % 0 cb 1020,7 hPa 0,0 mm 0,0 km/h SW 225 ° 0 min 8,1 °C 11,6 °C 0,0 km/h
03.06.2024 00:54 11,8 °C 78 % 0 cb 1020,7 hPa 0,0 mm 0,0 km/h W 260 ° 0 min 8,1 °C 11,8 °C 0,0 km/h
03.06.2024 00:49 11,9 °C 78 % 0 cb 1020,7 hPa 0,0 mm 0,0 km/h NW 315 ° 0 min 8,2 °C 11,9 °C 0,0 km/h
03.06.2024 00:44 12,0 °C 78 % 0 cb 1020,7 hPa 0,0 mm 1,2 km/h SO 140 ° 0 min 8,3 °C 12,0 °C 1,2 km/h
03.06.2024 00:39 12,0 °C 78 % 0 cb 1020,7 hPa 0,0 mm 0,0 km/h N-NW 335 ° 0 min 8,3 °C 12,0 °C 0,0 km/h
03.06.2024 00:34 12,1 °C 78 % 0 cb 1020,7 hPa 0,0 mm 1,2 km/h S-SO 160 ° 0 min 8,4 °C 12,1 °C 1,2 km/h
03.06.2024 00:29 12,2 °C 77 % 0 cb 1020,7 hPa 0,0 mm 0,0 km/h O 95 ° 0 min 8,3 °C 12,2 °C 0,0 km/h
03.06.2024 00:24 12,3 °C 77 % 0 cb 1020,7 hPa 0,0 mm 1,2 km/h SW 230 ° 0 min 8,4 °C 12,3 °C 1,2 km/h
03.06.2024 00:19 12,4 °C 77 % 0 cb 1020,7 hPa 0,0 mm 1,8 km/h NW 310 ° 0 min 8,5 °C 12,4 °C 1,8 km/h
03.06.2024 00:14 12,5 °C 77 % 0 cb 1020,7 hPa 0,0 mm 0,0 km/h N-NW 340 ° 0 min 8,6 °C 12,5 °C 0,0 km/h
03.06.2024 00:09 12,5 °C 76 % 0 cb 1020,7 hPa 0,0 mm 0,0 km/h O-NO 70 ° 0 min 8,4 °C 12,5 °C 0,0 km/h
03.06.2024 00:04 12,6 °C 76 % 0 cb 1020,7 hPa 0,0 mm 0,0 km/h S 170 ° 0 min 8,5 °C 12,6 °C 0,0 km/h
02.06.2024 23:59 12,7 °C 76 % 0 cb 1020,7 hPa 0,0 mm 0,0 km/h NW 315 ° 0 min 8,6 °C 12,7 °C 0,0 km/h
02.06.2024 23:54 12,8 °C 76 % 0 cb 1020,7 hPa 0,0 mm 0,0 km/h W-NW 300 ° 0 min 8,7 °C 12,8 °C 0,0 km/h
02.06.2024 23:49 13,0 °C 75 % 0 cb 1020,7 hPa 0,0 mm 0,6 km/h N-NO 20 ° 0 min 8,7 °C 13,0 °C 0,6 km/h
02.06.2024 23:44 13,1 °C 75 % 0 cb 1020,7 hPa 0,0 mm 0,0 km/h NO 45 ° 0 min 8,8 °C 13,1 °C 0,0 km/h
02.06.2024 23:39 13,2 °C 75 % 0 cb 1020,7 hPa 0,0 mm 1,2 km/h S-SW 195 ° 0 min 8,9 °C 13,2 °C 1,2 km/h
02.06.2024 23:34 13,3 °C 75 % 0 cb 1020,7 hPa 0,0 mm 1,2 km/h O 100 ° 0 min 9,0 °C 13,3 °C 1,2 km/h
02.06.2024 23:29 13,4 °C 75 % 0 cb 1021,7 hPa 0,0 mm 4,2 km/h S-SO 150 ° 0 min 9,1 °C 13,4 °C 4,2 km/h
02.06.2024 23:24 13,5 °C 75 % 0 cb 1021,7 hPa 0,0 mm 3,6 km/h N-NO 20 ° 0 min 9,2 °C 13,5 °C 3,6 km/h
02.06.2024 23:19 13,6 °C 75 % 0 cb 1021,7 hPa 0,0 mm 2,4 km/h NW 320 ° 0 min 9,3 °C 13,6 °C 2,4 km/h
02.06.2024 23:14 13,8 °C 74 % 0 cb 1020,7 hPa 0,0 mm 2,4 km/h NW 305 ° 0 min 9,2 °C 13,8 °C 2,4 km/h
02.06.2024 23:09 13,9 °C 74 % 0 cb 1020,7 hPa 0,0 mm 2,4 km/h SO 145 ° 0 min 9,3 °C 13,9 °C 2,4 km/h
02.06.2024 23:04 14,0 °C 74 % 0 cb 1020,7 hPa 0,0 mm 1,8 km/h N-NW 330 ° 0 min 9,4 °C 14,0 °C 1,8 km/h
02.06.2024 22:59 14,2 °C 74 % 0 cb 1020,7 hPa 0,0 mm 0,6 km/h S-SO 165 ° 0 min 9,6 °C 14,2 °C 0,6 km/h
02.06.2024 22:54 14,3 °C 73 % 0 cb 1020,7 hPa 0,0 mm 0,6 km/h W-NW 285 ° 0 min 9,5 °C 14,3 °C 0,6 km/h
02.06.2024 22:49 14,4 °C 73 % 0 cb 1020,7 hPa 0,0 mm 0,6 km/h W-SW 245 ° 0 min 9,6 °C 14,4 °C 0,6 km/h
02.06.2024 22:44 14,5 °C 72 % 0 cb 1020,7 hPa 0,0 mm 1,8 km/h SW 225 ° 0 min 9,5 °C 14,5 °C 1,8 km/h
02.06.2024 22:39 14,7 °C 72 % 0 cb 1020,7 hPa 0,0 mm 1,8 km/h N-NW 340 ° 0 min 9,7 °C 14,7 °C 1,8 km/h
02.06.2024 22:34 14,9 °C 72 % 0 cb 1020,7 hPa 0,0 mm 1,8 km/h W 265 ° 0 min 9,9 °C 14,9 °C 1,8 km/h
02.06.2024 22:29 15,0 °C 71 % 0 cb 1020,7 hPa 0,0 mm 1,8 km/h W 280 ° 0 min 9,8 °C 15,0 °C 1,8 km/h
02.06.2024 22:24 15,2 °C 71 % 0 cb 1020,7 hPa 0,0 mm 3,0 km/h N 350 ° 0 min 10,0 °C 15,2 °C 3,0 km/h
02.06.2024 22:19 15,4 °C 71 % 0 cb 1020,7 hPa 0,0 mm 2,4 km/h W 260 ° 0 min 10,2 °C 15,4 °C 2,4 km/h
02.06.2024 22:14 15,5 °C 70 % 0 cb 1020,7 hPa 0,0 mm 4,8 km/h N 10 ° 0 min 10,1 °C 15,5 °C 4,8 km/h
02.06.2024 22:09 15,7 °C 70 % 0 cb 1020,7 hPa 0,0 mm 4,8 km/h N-NW 340 ° 0 min 10,2 °C 15,7 °C 4,8 km/h
02.06.2024 22:04 15,8 °C 70 % 0 cb 1020,7 hPa 0,0 mm 3,6 km/h O-NO 60 ° 0 min 10,3 °C 15,8 °C 3,6 km/h
02.06.2024 21:59 15,8 °C 71 % 0 cb 1020,7 hPa 0,0 mm 0,6 km/h N 0 ° 0 min 10,6 °C 15,8 °C 0,6 km/h
02.06.2024 21:54 15,9 °C 71 % 0 cb 1020,7 hPa 0,0 mm 2,4 km/h O 80 ° 0 min 10,6 °C 15,9 °C 2,4 km/h
02.06.2024 21:49 15,9 °C 71 % 0 cb 1020,7 hPa 0,0 mm 3,0 km/h S 170 ° 0 min 10,6 °C 15,9 °C 3,0 km/h
02.06.2024 21:44 16,0 °C 70 % 0 cb 1020,7 hPa 0,0 mm 1,2 km/h NW 315 ° 0 min 10,5 °C 16,0 °C 1,2 km/h
02.06.2024 21:39 16,0 °C 70 % 0 cb 1020,7 hPa 0,0 mm 0,0 km/h W-NW 295 ° 0 min 10,5 °C 16,0 °C 0,0 km/h
02.06.2024 21:34 16,1 °C 70 % 0 cb 1020,6 hPa 0,0 mm 0,0 km/h NW 320 ° 0 min 10,6 °C 16,1 °C 0,0 km/h
02.06.2024 21:29 16,1 °C 70 % 0 cb 1020,6 hPa 0,0 mm 0,6 km/h W-NW 290 ° 0 min 10,6 °C 16,1 °C 0,6 km/h
02.06.2024 21:24 16,2 °C 70 % 0 cb 1020,6 hPa 0,0 mm 0,0 km/h W 270 ° 0 min 10,7 °C 16,2 °C 0,0 km/h
02.06.2024 21:19 16,2 °C 70 % 0 cb 1020,6 hPa 0,0 mm 0,0 km/h W-NW 285 ° 0 min 10,7 °C 16,2 °C 0,0 km/h
02.06.2024 21:14 16,2 °C 70 % 0 cb 1020,6 hPa 0,0 mm 0,0 km/h O-NO 60 ° 0 min 10,7 °C 16,2 °C 0,0 km/h
02.06.2024 21:09 16,2 °C 70 % 0 cb 1020,6 hPa 0,0 mm 0,0 km/h SO 130 ° 0 min 10,7 °C 16,2 °C 0,0 km/h
02.06.2024 21:04 16,2 °C 70 % 0 cb 1020,6 hPa 0,0 mm 1,8 km/h W-NW 300 ° 0 min 10,7 °C 16,2 °C 1,8 km/h
02.06.2024 20:59 16,2 °C 70 % 0 cb 1020,6 hPa 0,0 mm 0,0 km/h NW 320 ° 0 min 10,7 °C 16,2 °C 0,0 km/h
02.06.2024 20:54 16,2 °C 70 % 0 cb 1020,6 hPa 0,0 mm 0,0 km/h NW 310 ° 0 min 10,7 °C 16,2 °C 0,0 km/h
02.06.2024 20:49 16,2 °C 70 % 0 cb 1020,6 hPa 0,0 mm 0,6 km/h NO 40 ° 0 min 10,7 °C 16,2 °C 0,6 km/h
02.06.2024 20:44 16,2 °C 69 % 0 cb 1020,6 hPa 0,0 mm 1,8 km/h S-SW 205 ° 0 min 10,5 °C 16,2 °C 1,8 km/h
02.06.2024 20:39 16,2 °C 69 % 0 cb 1020,6 hPa 0,0 mm 0,0 km/h S-SO 160 ° 0 min 10,5 °C 16,2 °C 0,0 km/h
02.06.2024 20:34 16,2 °C 69 % 0 cb 1020,6 hPa 0,0 mm 0,0 km/h O-SO 115 ° 0 min 10,5 °C 16,2 °C 0,0 km/h
02.06.2024 20:29 16,3 °C 69 % 0 cb 1020,6 hPa 0,0 mm 0,0 km/h W-NW 285 ° 0 min 10,6 °C 16,3 °C 0,0 km/h
02.06.2024 20:24 16,4 °C 69 % 0 cb 1020,6 hPa 0,0 mm 0,0 km/h O-SO 105 ° 0 min 10,7 °C 16,4 °C 0,0 km/h
02.06.2024 20:19 16,5 °C 69 % 0 cb 1020,6 hPa 0,0 mm 1,2 km/h SO 135 ° 0 min 10,8 °C 16,5 °C 1,2 km/h
02.06.2024 20:14 16,6 °C 69 % 0 cb 1020,6 hPa 0,0 mm 3,0 km/h S-SO 165 ° 0 min 10,9 °C 16,6 °C 3,0 km/h
02.06.2024 20:09 16,6 °C 68 % 0 cb 1020,6 hPa 0,0 mm 3,0 km/h NO 55 ° 0 min 10,7 °C 16,6 °C 3,0 km/h
02.06.2024 20:04 16,8 °C 69 % 0 cb 1020,6 hPa 0,0 mm 0,0 km/h S-SO 155 ° 0 min 11,1 °C 16,8 °C 0,0 km/h
02.06.2024 19:59 16,8 °C 68 % 0 cb 1020,6 hPa 0,0 mm 0,6 km/h S 175 ° 0 min 10,9 °C 16,8 °C 0,6 km/h
02.06.2024 19:54 17,1 °C 68 % 0 cb 1020,6 hPa 0,0 mm 0,0 km/h O-SO 120 ° 0 min 11,1 °C 17,1 °C 0,0 km/h
02.06.2024 19:49 17,3 °C 68 % 0 cb 1020,6 hPa 0,0 mm 3,6 km/h NW 325 ° 0 min 11,3 °C 17,3 °C 3,6 km/h
02.06.2024 19:44 17,5 °C 68 % 0 cb 1020,6 hPa 0,0 mm 0,0 km/h NW 320 ° 0 min 11,5 °C 17,5 °C 0,0 km/h
02.06.2024 19:39 17,7 °C 67 % 0 cb 1020,6 hPa 0,0 mm 2,4 km/h N-NO 20 ° 0 min 11,5 °C 17,7 °C 2,4 km/h
02.06.2024 19:34 17,8 °C 67 % 0 cb 1020,6 hPa 0,0 mm 1,8 km/h N-NO 25 ° 0 min 11,6 °C 17,8 °C 1,8 km/h
02.06.2024 19:29 18,0 °C 67 % 0 cb 1020,6 hPa 0,0 mm 1,2 km/h O-SO 105 ° 0 min 11,8 °C 18,0 °C 1,2 km/h
02.06.2024 19:24 18,1 °C 66 % 0 cb 1020,6 hPa 0,0 mm 2,4 km/h SW 220 ° 0 min 11,6 °C 18,1 °C 2,4 km/h
02.06.2024 19:19 18,3 °C 67 % 0 cb 1020,6 hPa 0,0 mm 3,0 km/h O 85 ° 0 min 12,1 °C 18,3 °C 3,0 km/h
02.06.2024 19:14 18,4 °C 66 % 0 cb 1019,6 hPa 0,0 mm 6,1 km/h N-NO 20 ° 0 min 11,9 °C 18,4 °C 6,1 km/h
02.06.2024 19:09 18,6 °C 66 % 0 cb 1019,6 hPa 0,0 mm 6,7 km/h W-NW 300 ° 0 min 12,1 °C 18,6 °C 6,7 km/h
02.06.2024 19:04 18,7 °C 66 % 0 cb 1019,6 hPa 0,0 mm 2,4 km/h W-SW 240 ° 0 min 12,2 °C 18,7 °C 2,4 km/h
02.06.2024 18:59 18,7 °C 66 % 0 cb 1019,6 hPa 0,0 mm 10,3 km/h SO 145 ° 0 min 12,2 °C 18,7 °C 10,3 km/h
02.06.2024 18:54 18,6 °C 66 % 0 cb 1019,6 hPa 0,0 mm 8,5 km/h S-SW 205 ° 0 min 12,1 °C 18,6 °C 8,5 km/h
02.06.2024 18:49 18,8 °C 66 % 0 cb 1019,6 hPa 0,0 mm 3,0 km/h N-NW 335 ° 0 min 12,3 °C 18,8 °C 3,0 km/h
02.06.2024 18:44 19,1 °C 65 % 1 cb 1019,6 hPa 0,0 mm 6,7 km/h W 280 ° 1 min 12,4 °C 19,1 °C 6,7 km/h
02.06.2024 18:39 19,4 °C 65 % 0 cb 1019,6 hPa 0,0 mm 2,4 km/h NW 315 ° 0 min 12,6 °C 19,4 °C 2,4 km/h
02.06.2024 18:34 19,8 °C 65 % 0 cb 1019,6 hPa 0,0 mm 1,2 km/h N-NW 335 ° 0 min 13,0 °C 19,8 °C 1,2 km/h
02.06.2024 18:29 20,2 °C 64 % 0 cb 1020,6 hPa 0,0 mm 1,8 km/h SO 130 ° 0 min 13,2 °C 20,2 °C 1,8 km/h
02.06.2024 18:24 20,6 °C 64 % 1 cb 1020,6 hPa 0,0 mm 1,8 km/h NO 45 ° 1 min 13,5 °C 20,6 °C 1,8 km/h
02.06.2024 18:19 20,5 °C 66 % 2 cb 1020,6 hPa 0,0 mm 1,2 km/h W-SW 250 ° 2 min 13,9 °C 20,5 °C 1,2 km/h
02.06.2024 18:14 19,6 °C 66 % 5 cb 1019,6 hPa 0,0 mm 1,8 km/h S 190 ° 5 min 13,1 °C 19,6 °C 1,8 km/h
02.06.2024 18:09 19,5 °C 66 % 0 cb 1019,6 hPa 0,0 mm 1,2 km/h W-SW 240 ° 0 min 13,0 °C 19,5 °C 1,2 km/h
02.06.2024 18:04 19,6 °C 65 % 0 cb 1019,6 hPa 0,0 mm 3,6 km/h W 265 ° 0 min 12,8 °C 19,6 °C 3,6 km/h
02.06.2024 17:59 19,7 °C 65 % 2 cb 1019,6 hPa 0,0 mm 8,5 km/h S-SW 210 ° 2 min 12,9 °C 19,7 °C 8,5 km/h
02.06.2024 17:54 20,0 °C 65 % 0 cb 1019,6 hPa 0,0 mm 0,6 km/h W-NW 295 ° 0 min 13,2 °C 20,0 °C 0,6 km/h
02.06.2024 17:49 20,1 °C 65 % 0 cb 1019,6 hPa 0,0 mm 4,8 km/h N 0 ° 0 min 13,3 °C 20,1 °C 4,8 km/h
02.06.2024 17:44 21,1 °C 65 % 0 cb 1020,6 hPa 0,0 mm 1,2 km/h NW 305 ° 0 min 14,3 °C 21,1 °C 1,2 km/h
02.06.2024 17:39 20,9 °C 65 % 2 cb 1020,6 hPa 0,0 mm 1,8 km/h O 80 ° 2 min 14,1 °C 20,9 °C 1,8 km/h
02.06.2024 17:34 20,6 °C 65 % 1 cb 1020,6 hPa 0,0 mm 1,2 km/h O-NO 65 ° 1 min 13,8 °C 20,6 °C 1,2 km/h
02.06.2024 17:29 19,7 °C 66 % 4 cb 1020,6 hPa 0,0 mm 2,4 km/h SO 135 ° 4 min 13,2 °C 19,7 °C 2,4 km/h
02.06.2024 17:24 19,4 °C 66 % 1 cb 1020,6 hPa 0,0 mm 8,5 km/h SW 225 ° 1 min 12,9 °C 19,4 °C 8,5 km/h
02.06.2024 17:19 19,6 °C 67 % 0 cb 1020,6 hPa 0,0 mm 0,0 km/h N-NO 30 ° 0 min 13,3 °C 19,6 °C 0,0 km/h
02.06.2024 17:14 19,5 °C 67 % 0 cb 1019,6 hPa 0,0 mm 0,0 km/h W 260 ° 0 min 13,2 °C 19,5 °C 0,0 km/h
02.06.2024 17:09 19,4 °C 66 % 0 cb 1019,6 hPa 0,0 mm 1,2 km/h W-SW 255 ° 0 min 12,9 °C 19,4 °C 1,2 km/h
02.06.2024 17:04 19,3 °C 66 % 0 cb 1019,6 hPa 0,0 mm 1,2 km/h NW 320 ° 0 min 12,8 °C 19,3 °C 1,2 km/h
02.06.2024 16:59 19,7 °C 66 % 0 cb 1020,6 hPa 0,0 mm 3,6 km/h N 5 ° 0 min 13,2 °C 19,7 °C 3,6 km/h
02.06.2024 16:54 19,8 °C 66 % 0 cb 1020,6 hPa 0,0 mm 2,4 km/h SW 225 ° 0 min 13,3 °C 19,8 °C 2,4 km/h
02.06.2024 16:49 19,4 °C 67 % 2 cb 1020,6 hPa 0,0 mm 0,6 km/h SW 225 ° 2 min 13,1 °C 19,4 °C 0,6 km/h
02.06.2024 16:44 19,3 °C 67 % 0 cb 1020,6 hPa 0,0 mm 1,2 km/h N 355 ° 0 min 13,0 °C 19,3 °C 1,2 km/h
02.06.2024 16:39 19,3 °C 67 % 0 cb 1020,6 hPa 0,0 mm 4,2 km/h O-NO 70 ° 0 min 13,0 °C 19,3 °C 4,2 km/h
02.06.2024 16:34 19,4 °C 66 % 0 cb 1020,6 hPa 0,0 mm 4,2 km/h SW 220 ° 0 min 12,9 °C 19,4 °C 4,2 km/h
02.06.2024 16:29 19,7 °C 66 % 0 cb 1020,6 hPa 0,0 mm 3,6 km/h NO 50 ° 0 min 13,2 °C 19,7 °C 3,6 km/h
02.06.2024 16:24 20,0 °C 65 % 0 cb 1020,6 hPa 0,0 mm 0,6 km/h W 270 ° 0 min 13,2 °C 20,0 °C 0,6 km/h
02.06.2024 16:19 20,3 °C 66 % 0 cb 1020,6 hPa 0,0 mm 4,8 km/h SW 215 ° 0 min 13,7 °C 20,3 °C 4,8 km/h
02.06.2024 16:14 20,2 °C 67 % 2 cb 1020,6 hPa 0,0 mm 1,8 km/h S 180 ° 2 min 13,9 °C 20,2 °C 1,8 km/h
02.06.2024 16:09 20,5 °C 66 % 0 cb 1020,6 hPa 0,0 mm 5,4 km/h N-NO 25 ° 0 min 13,9 °C 20,5 °C 5,4 km/h
02.06.2024 16:04 20,5 °C 66 % 1 cb 1020,6 hPa 0,0 mm 1,8 km/h SO 125 ° 1 min 13,9 °C 20,5 °C 1,8 km/h
02.06.2024 15:59 20,0 °C 66 % 3 cb 1020,6 hPa 0,0 mm 3,6 km/h W 275 ° 3 min 13,4 °C 20,0 °C 3,6 km/h
02.06.2024 15:54 20,0 °C 67 % 1 cb 1020,6 hPa 0,0 mm 1,2 km/h NW 320 ° 1 min 13,7 °C 20,0 °C 1,2 km/h
02.06.2024 15:49 19,1 °C 67 % 2 cb 1020,6 hPa 0,0 mm 7,9 km/h W-NW 295 ° 2 min 12,8 °C 19,1 °C 7,9 km/h
02.06.2024 15:44 19,3 °C 67 % 0 cb 1020,6 hPa 0,0 mm 7,9 km/h NO 50 ° 0 min 13,0 °C 19,3 °C 7,9 km/h
02.06.2024 15:39 19,8 °C 67 % 0 cb 1020,6 hPa 0,0 mm 2,4 km/h S-SW 195 ° 0 min 13,5 °C 19,8 °C 2,4 km/h
02.06.2024 15:34 19,8 °C 67 % 2 cb 1020,6 hPa 0,0 mm 2,4 km/h SO 130 ° 2 min 13,5 °C 19,8 °C 2,4 km/h
02.06.2024 15:29 19,5 °C 68 % 4 cb 1020,6 hPa 0,0 mm 4,8 km/h SO 145 ° 4 min 13,4 °C 19,5 °C 4,8 km/h
02.06.2024 15:24 19,0 °C 68 % 1 cb 1020,6 hPa 0,0 mm 3,0 km/h NO 35 ° 1 min 13,0 °C 19,0 °C 3,0 km/h
02.06.2024 15:19 19,0 °C 69 % 0 cb 1020,6 hPa 0,0 mm 2,4 km/h S 190 ° 0 min 13,2 °C 19,0 °C 2,4 km/h
02.06.2024 15:14 18,9 °C 69 % 0 cb 1020,6 hPa 0,0 mm 2,4 km/h N-NW 335 ° 0 min 13,1 °C 18,9 °C 2,4 km/h
02.06.2024 15:09 18,8 °C 69 % 0 cb 1020,6 hPa 0,0 mm 3,6 km/h S-SW 205 ° 0 min 13,0 °C 18,8 °C 3,6 km/h
02.06.2024 15:04 19,0 °C 69 % 0 cb 1020,6 hPa 0,0 mm 2,4 km/h S 170 ° 0 min 13,2 °C 19,0 °C 2,4 km/h
02.06.2024 14:59 19,3 °C 69 % 0 cb 1020,6 hPa 0,0 mm 2,4 km/h S 185 ° 0 min 13,5 °C 19,3 °C 2,4 km/h
02.06.2024 14:54 19,3 °C 68 % 0 cb 1020,6 hPa 0,0 mm 1,8 km/h S-SW 195 ° 0 min 13,2 °C 19,3 °C 1,8 km/h
02.06.2024 14:49 19,4 °C 68 % 1 cb 1020,6 hPa 0,0 mm 1,2 km/h W 265 ° 1 min 13,3 °C 19,4 °C 1,2 km/h
02.06.2024 14:44 19,5 °C 68 % 0 cb 1020,6 hPa 0,0 mm 4,8 km/h NW 320 ° 0 min 13,4 °C 19,5 °C 4,8 km/h
02.06.2024 14:39 19,5 °C 68 % 1 cb 1020,6 hPa 0,0 mm 2,4 km/h NW 310 ° 1 min 13,4 °C 19,5 °C 2,4 km/h
02.06.2024 14:34 19,3 °C 69 % 7 cb 1020,6 hPa 0,0 mm 2,4 km/h S-SW 210 ° 7 min 13,5 °C 19,3 °C 2,4 km/h
02.06.2024 14:29 18,9 °C 69 % 0 cb 1020,6 hPa 0,0 mm 3,6 km/h O-SO 105 ° 0 min 13,1 °C 18,9 °C 3,6 km/h
02.06.2024 14:24 19,2 °C 69 % 0 cb 1020,6 hPa 0,0 mm 3,6 km/h W 280 ° 0 min 13,4 °C 19,2 °C 3,6 km/h
02.06.2024 14:19 19,3 °C 69 % 0 cb 1020,6 hPa 0,0 mm 1,2 km/h O-SO 115 ° 0 min 13,5 °C 19,3 °C 1,2 km/h
02.06.2024 14:14 19,3 °C 69 % 0 cb 1020,6 hPa 0,0 mm 0,6 km/h SW 215 ° 0 min 13,5 °C 19,3 °C 0,6 km/h
02.06.2024 14:09 19,1 °C 70 % 2 cb 1020,6 hPa 0,0 mm 3,6 km/h S 185 ° 2 min 13,5 °C 19,1 °C 3,6 km/h
02.06.2024 14:04 18,9 °C 71 % 7 cb 1020,6 hPa 0,0 mm 3,0 km/h W-NW 300 ° 7 min 13,5 °C 18,9 °C 3,0 km/h
02.06.2024 13:59 17,9 °C 72 % 2 cb 1021,6 hPa 0,0 mm 2,4 km/h N-NO 20 ° 2 min 12,8 °C 17,9 °C 2,4 km/h
02.06.2024 13:54 17,5 °C 72 % 0 cb 1021,6 hPa 0,0 mm 3,6 km/h O-NO 75 ° 0 min 12,4 °C 17,5 °C 3,6 km/h
02.06.2024 13:49 17,3 °C 72 % 0 cb 1021,6 hPa 0,0 mm 1,8 km/h W-NW 300 ° 0 min 12,2 °C 17,3 °C 1,8 km/h
02.06.2024 13:44 17,1 °C 72 % 0 cb 1021,6 hPa 0,0 mm 6,1 km/h S 180 ° 0 min 12,0 °C 17,1 °C 6,1 km/h
02.06.2024 13:39 17,1 °C 72 % 0 cb 1021,6 hPa 0,0 mm 9,1 km/h NO 35 ° 0 min 12,0 °C 17,1 °C 9,1 km/h
02.06.2024 13:34 17,1 °C 73 % 0 cb 1021,6 hPa 0,0 mm 7,3 km/h N 5 ° 0 min 12,2 °C 17,1 °C 7,3 km/h
02.06.2024 13:29 17,1 °C 73 % 0 cb 1021,6 hPa 0,0 mm 4,8 km/h NW 315 ° 0 min 12,2 °C 17,1 °C 4,8 km/h
02.06.2024 13:24 17,1 °C 73 % 0 cb 1021,6 hPa 0,0 mm 1,8 km/h NW 310 ° 0 min 12,2 °C 17,1 °C 1,8 km/h
02.06.2024 13:19 16,9 °C 73 % 0 cb 1021,6 hPa 0,0 mm 6,1 km/h N-NO 25 ° 0 min 12,0 °C 16,9 °C 6,1 km/h
02.06.2024 13:14 16,7 °C 73 % 0 cb 1020,6 hPa 0,0 mm 6,1 km/h NW 320 ° 0 min 11,8 °C 16,7 °C 6,1 km/h
02.06.2024 13:09 16,6 °C 74 % 0 cb 1020,6 hPa 0,0 mm 6,7 km/h S-SO 150 ° 0 min 11,9 °C 16,6 °C 6,7 km/h
02.06.2024 13:04 16,5 °C 74 % 0 cb 1020,6 hPa 0,0 mm 2,4 km/h N-NW 340 ° 0 min 11,8 °C 16,5 °C 2,4 km/h
02.06.2024 12:59 16,4 °C 74 % 0 cb 1021,6 hPa 0,0 mm 3,6 km/h O-SO 105 ° 0 min 11,8 °C 16,4 °C 3,6 km/h
02.06.2024 12:54 16,4 °C 74 % 0 cb 1021,6 hPa 0,0 mm 4,8 km/h W-NW 290 ° 0 min 11,8 °C 16,4 °C 4,8 km/h
02.06.2024 12:49 16,2 °C 74 % 0 cb 1021,7 hPa 0,0 mm 7,9 km/h S-SO 150 ° 0 min 11,6 °C 16,2 °C 7,9 km/h
02.06.2024 12:44 16,2 °C 74 % 0 cb 1021,7 hPa 0,0 mm 4,8 km/h N-NW 330 ° 0 min 11,6 °C 16,2 °C 4,8 km/h
02.06.2024 12:39 16,3 °C 75 % 0 cb 1021,7 hPa 0,0 mm 0,6 km/h SO 125 ° 0 min 11,9 °C 16,3 °C 0,6 km/h
02.06.2024 12:34 16,2 °C 75 % 0 cb 1021,7 hPa 0,0 mm 1,8 km/h W-NW 300 ° 0 min 11,8 °C 16,2 °C 1,8 km/h
02.06.2024 12:29 16,1 °C 75 % 0 cb 1020,6 hPa 0,0 mm 4,2 km/h N-NO 30 ° 0 min 11,7 °C 16,1 °C 4,2 km/h
02.06.2024 12:24 16,0 °C 76 % 0 cb 1020,7 hPa 0,0 mm 1,2 km/h W-SW 240 ° 0 min 11,8 °C 16,0 °C 1,2 km/h
02.06.2024 12:19 15,9 °C 76 % 0 cb 1020,7 hPa 0,0 mm 1,8 km/h N-NO 30 ° 0 min 11,7 °C 15,9 °C 1,8 km/h
02.06.2024 12:14 15,7 °C 77 % 0 cb 1021,7 hPa 0,0 mm 0,0 km/h S 185 ° 0 min 11,7 °C 15,7 °C 0,0 km/h
02.06.2024 12:09 15,5 °C 76 % 0 cb 1021,7 hPa 0,0 mm 0,6 km/h SO 135 ° 0 min 11,3 °C 15,5 °C 0,6 km/h
02.06.2024 12:04 15,4 °C 76 % 0 cb 1021,7 hPa 0,0 mm 3,6 km/h O-SO 115 ° 0 min 11,2 °C 15,4 °C 3,6 km/h
02.06.2024 11:59 15,4 °C 77 % 0 cb 1021,7 hPa 0,0 mm 1,8 km/h SW 225 ° 0 min 11,4 °C 15,4 °C 1,8 km/h
02.06.2024 11:54 15,3 °C 77 % 0 cb 1021,7 hPa 0,0 mm 3,6 km/h O 85 ° 0 min 11,3 °C 15,3 °C 3,6 km/h
02.06.2024 11:49 15,3 °C 77 % 0 cb 1021,7 hPa 0,0 mm 1,2 km/h NW 310 ° 0 min 11,3 °C 15,3 °C 1,2 km/h
02.06.2024 11:44 15,1 °C 77 % 0 cb 1021,7 hPa 0,0 mm 2,4 km/h S-SW 195 ° 0 min 11,1 °C 15,1 °C 2,4 km/h
02.06.2024 11:39 14,9 °C 77 % 0 cb 1021,7 hPa 0,0 mm 3,6 km/h NW 315 ° 0 min 10,9 °C 14,9 °C 3,6 km/h
02.06.2024 11:34 14,9 °C 77 % 0 cb 1021,7 hPa 0,0 mm 4,2 km/h N 5 ° 0 min 10,9 °C 14,9 °C 4,2 km/h
02.06.2024 11:29 14,8 °C 78 % 0 cb 1020,7 hPa 0,0 mm 2,4 km/h S 170 ° 0 min 11,0 °C 14,8 °C 2,4 km/h
02.06.2024 11:24 14,9 °C 78 % 0 cb 1020,7 hPa 0,0 mm 2,4 km/h SO 125 ° 0 min 11,1 °C 14,9 °C 2,4 km/h
02.06.2024 11:19 14,9 °C 78 % 0 cb 1020,7 hPa 0,0 mm 4,8 km/h W-SW 240 ° 0 min 11,1 °C 14,9 °C 4,8 km/h
02.06.2024 11:14 14,9 °C 78 % 0 cb 1021,7 hPa 0,0 mm 4,2 km/h NW 310 ° 0 min 11,1 °C 14,9 °C 4,2 km/h
02.06.2024 11:09 14,8 °C 79 % 0 cb 1021,7 hPa 0,0 mm 4,8 km/h SO 140 ° 0 min 11,2 °C 14,8 °C 4,8 km/h
02.06.2024 11:04 14,7 °C 79 % 0 cb 1021,7 hPa 0,0 mm 3,0 km/h NW 310 ° 0 min 11,1 °C 14,7 °C 3,0 km/h
02.06.2024 10:59 14,4 °C 79 % 0 cb 1021,7 hPa 0,0 mm 0,6 km/h N-NO 25 ° 0 min 10,8 °C 14,4 °C 0,6 km/h
02.06.2024 10:54 14,4 °C 80 % 0 cb 1021,7 hPa 0,0 mm 3,0 km/h N-NO 30 ° 0 min 11,0 °C 14,4 °C 3,0 km/h
02.06.2024 10:49 14,3 °C 80 % 0 cb 1021,7 hPa 0,0 mm 6,7 km/h SW 215 ° 0 min 10,9 °C 14,3 °C 6,7 km/h
02.06.2024 10:44 14,2 °C 80 % 0 cb 1021,7 hPa 0,0 mm 3,0 km/h NW 325 ° 0 min 10,8 °C 14,2 °C 3,0 km/h
02.06.2024 10:39 14,1 °C 80 % 0 cb 1021,7 hPa 0,0 mm 2,4 km/h NO 35 ° 0 min 10,7 °C 14,1 °C 2,4 km/h
02.06.2024 10:34 14,0 °C 80 % 0 cb 1021,7 hPa 0,0 mm 4,8 km/h W-NW 290 ° 0 min 10,6 °C 14,0 °C 4,8 km/h
02.06.2024 10:29 14,0 °C 81 % 0 cb 1021,7 hPa 0,0 mm 3,6 km/h S 190 ° 0 min 10,8 °C 14,0 °C 3,6 km/h
02.06.2024 10:24 14,0 °C 81 % 0 cb 1021,7 hPa 0,0 mm 7,3 km/h NW 315 ° 0 min 10,8 °C 14,0 °C 7,3 km/h
02.06.2024 10:19 14,1 °C 81 % 0 cb 1021,7 hPa 0,0 mm 2,4 km/h N-NW 330 ° 0 min 10,9 °C 14,1 °C 2,4 km/h
02.06.2024 10:14 14,2 °C 81 % 0 cb 1021,7 hPa 0,0 mm 1,2 km/h O-NO 60 ° 0 min 11,0 °C 14,2 °C 1,2 km/h
02.06.2024 10:09 14,1 °C 82 % 0 cb 1021,7 hPa 0,0 mm 2,4 km/h NW 315 ° 0 min 11,1 °C 14,1 °C 2,4 km/h
02.06.2024 10:04 14,0 °C 82 % 0 cb 1021,7 hPa 0,0 mm 1,2 km/h O 100 ° 0 min 11,0 °C 14,0 °C 1,2 km/h
02.06.2024 09:59 13,9 °C 82 % 0 cb 1021,7 hPa 0,0 mm 5,4 km/h NW 315 ° 0 min 10,9 °C 13,9 °C 5,4 km/h
02.06.2024 09:54 14,0 °C 83 % 0 cb 1021,7 hPa 0,0 mm 1,8 km/h O-SO 115 ° 0 min 11,2 °C 14,0 °C 1,8 km/h
02.06.2024 09:49 13,9 °C 83 % 0 cb 1021,7 hPa 0,0 mm 1,2 km/h N 355 ° 0 min 11,1 °C 13,9 °C 1,2 km/h
02.06.2024 09:44 13,8 °C 83 % 0 cb 1021,7 hPa 0,0 mm 0,6 km/h SO 140 ° 0 min 11,0 °C 13,8 °C 0,6 km/h
02.06.2024 09:39 13,8 °C 83 % 0 cb 1021,7 hPa 0,0 mm 3,6 km/h SW 230 ° 0 min 11,0 °C 13,8 °C 3,6 km/h
02.06.2024 09:34 13,8 °C 83 % 0 cb 1021,7 hPa 0,0 mm 4,8 km/h N-NO 15 ° 0 min 11,0 °C 13,8 °C 4,8 km/h
02.06.2024 09:29 13,8 °C 83 % 0 cb 1020,7 hPa 0,0 mm 0,6 km/h N-NO 15 ° 0 min 11,0 °C 13,8 °C 0,6 km/h
02.06.2024 09:24 13,7 °C 83 % 0 cb 1020,7 hPa 0,0 mm 0,6 km/h SW 215 ° 0 min 10,9 °C 13,7 °C 0,6 km/h
02.06.2024 09:19 13,7 °C 83 % 0 cb 1020,7 hPa 0,0 mm 3,0 km/h W-SW 255 ° 0 min 10,9 °C 13,7 °C 3,0 km/h
02.06.2024 09:14 13,7 °C 83 % 0 cb 1021,7 hPa 0,0 mm 3,0 km/h N 5 ° 0 min 10,9 °C 13,7 °C 3,0 km/h
02.06.2024 09:09 13,7 °C 83 % 0 cb 1021,7 hPa 0,0 mm 1,2 km/h W-SW 250 ° 0 min 10,9 °C 13,7 °C 1,2 km/h
02.06.2024 09:04 13,6 °C 84 % 0 cb 1021,7 hPa 0,0 mm 6,7 km/h W 260 ° 0 min 10,9 °C 13,6 °C 6,7 km/h
02.06.2024 08:59 13,5 °C 84 % 0 cb 1020,7 hPa 0,0 mm 2,4 km/h W-SW 245 ° 0 min 10,8 °C 13,5 °C 2,4 km/h
02.06.2024 08:54 13,5 °C 84 % 0 cb 1020,7 hPa 0,0 mm 2,4 km/h W 275 ° 0 min 10,8 °C 13,5 °C 2,4 km/h
02.06.2024 08:49 13,4 °C 84 % 0 cb 1020,7 hPa 0,0 mm 2,4 km/h SO 140 ° 0 min 10,8 °C 13,4 °C 2,4 km/h
02.06.2024 08:44 13,3 °C 85 % 0 cb 1020,7 hPa 0,0 mm 3,6 km/h N 355 ° 0 min 10,8 °C 13,3 °C 3,6 km/h
02.06.2024 08:39 13,3 °C 85 % 0 cb 1020,7 hPa 0,0 mm 3,6 km/h W-NW 290 ° 0 min 10,8 °C 13,3 °C 3,6 km/h
02.06.2024 08:34 13,2 °C 85 % 0 cb 1020,7 hPa 0,0 mm 3,0 km/h W-NW 300 ° 0 min 10,7 °C 13,2 °C 3,0 km/h
02.06.2024 08:29 13,2 °C 86 % 0 cb 1020,7 hPa 0,0 mm 1,2 km/h W-SW 255 ° 0 min 10,9 °C 13,2 °C 1,2 km/h
02.06.2024 08:24 13,2 °C 86 % 0 cb 1020,7 hPa 0,0 mm 5,4 km/h S-SW 210 ° 0 min 10,9 °C 13,2 °C 5,4 km/h
02.06.2024 08:19 13,2 °C 86 % 0 cb 1020,7 hPa 0,0 mm 6,7 km/h S-SO 165 ° 0 min 10,9 °C 13,2 °C 6,7 km/h
02.06.2024 08:14 13,2 °C 86 % 0 cb 1020,7 hPa 0,0 mm 7,9 km/h SW 235 ° 0 min 10,9 °C 13,2 °C 7,9 km/h
02.06.2024 08:09 13,2 °C 86 % 0 cb 1020,7 hPa 0,0 mm 4,2 km/h N 355 ° 0 min 10,9 °C 13,2 °C 4,2 km/h
02.06.2024 08:04 13,2 °C 87 % 0 cb 1020,7 hPa 0,0 mm 4,2 km/h NW 310 ° 0 min 11,1 °C 13,2 °C 4,2 km/h
_ Min-Zeit 04:04 18:29 07:26 19:14 - 07:26 - - - 04:04 04:04 07:26
Minimum _ 9,5 °C 64 % 0 cb 1019,6 hPa - 0,0 km/h - - - 6,8 °C 9,5 °C 0,0 km/h
_ Max-Zeit 17:44 08:04 14:34 23:29 07:26 18:59 - - 14:34 17:44 17:44 18:59
Maximum _ 21,1 °C 87 % 7 cb 1021,7 hPa 0,0 mm 10,3 km/h
SO
- - 7 min 14,3 °C 21,1 °C 10,3 km/h
SO
Durchschnitt _ 14,7 °C 76 % 0 cb 1020,6 hPa #0,0 mm 2,1 km/h NW - #0 min. 10,4 °C 14,7 °C 2,1 km/h
H.Kloepper